Time;durP1;ratioP1;P1;durP2;ratioP2;P2;SDS_P1;SDS_P2;PMS_P1;PMS_P2;Temp;Humidity;BMP_temperature;BMP_pressure;BME280_temperature;BME280_humidity;BME280_pressure;Samples;Min_cycle;Max_cycle;Signal;HPM_P1;HPM_P2
2023/11/14 00:00:29;;;;;;;32.90;18.80;;;;;;;8.02;68.80;94729.78;4211484;28;20465;-70
2023/11/14 00:02:31;;;;;;;27.85;18.38;;;;;;;8.05;68.70;94721.69;4202747;28;20056;-68
2023/11/14 00:04:38;;;;;;;28.88;18.02;;;;;;;8.10;68.35;94714.25;4201197;28;20060;-68
2023/11/14 00:06:40;;;;;;;28.15;18.48;;;;;;;8.17;68.58;94726.59;4214213;28;20143;-69
2023/11/14 00:08:42;;;;;;;33.10;20.63;;;;;;;8.17;68.19;94718.75;4205131;28;20128;-69
2023/11/14 00:10:44;;;;;;;38.50;19.13;;;;;;;8.17;68.24;94720.53;4204908;28;20055;-69
2023/11/14 00:12:45;;;;;;;32.70;19.63;;;;;;;8.17;68.06;94717.91;4200403;28;20051;-69
2023/11/14 00:14:48;;;;;;;29.75;18.60;;;;;;;8.06;68.13;94716.31;4211187;28;20048;-68
2023/11/14 00:16:49;;;;;;;31.15;18.63;;;;;;;8.04;68.89;94718.22;4216996;28;20048;-68
2023/11/14 00:18:53;;;;;;;26.80;18.35;;;;;;;8.06;68.65;94724.13;4206765;28;20121;-67
2023/11/14 00:20:56;;;;;;;29.98;19.52;;;;;;;8.11;68.89;94726.31;4211530;28;20043;-67
2023/11/14 00:22:58;;;;;;;29.23;18.98;;;;;;;8.15;68.78;94725.06;4210547;28;20126;-71
2023/11/14 00:25:00;;;;;;;29.92;19.05;;;;;;;8.18;68.56;94722.19;4211511;28;20065;-69
2023/11/14 00:27:03;;;;;;;31.02;18.45;;;;;;;8.23;68.23;94726.97;4205395;28;20436;-70
2023/11/14 00:29:07;;;;;;;34.42;18.30;;;;;;;8.19;67.49;94721.19;4208887;28;20037;-69
2023/11/14 00:31:09;;;;;;;30.50;18.67;;;;;;;8.06;68.69;94728.53;4204741;28;20632;-71
2023/11/14 00:33:11;;;;;;;27.67;18.70;;;;;;;7.93;69.22;94728.84;4206889;28;20386;-69
2023/11/14 00:35:13;;;;;;;28.58;17.85;;;;;;;7.87;69.86;94738.09;4197520;28;20078;-71
2023/11/14 00:37:16;;;;;;;25.92;17.38;;;;;;;7.89;68.92;94735.31;4220175;28;20043;-70
2023/11/14 00:39:18;;;;;;;27.05;17.65;;;;;;;7.90;69.63;94731.75;4212115;28;20051;-70
2023/11/14 00:41:20;;;;;;;31.00;17.60;;;;;;;7.95;69.06;94719.09;4198213;28;20064;-69
2023/11/14 00:43:22;;;;;;;31.23;17.55;;;;;;;7.96;68.79;94725.97;4209499;28;20052;-69
2023/11/14 00:45:25;;;;;;;29.25;17.00;;;;;;;7.92;69.72;94720.22;4211195;28;20087;-70
2023/11/14 00:47:27;;;;;;;24.35;16.55;;;;;;;7.93;69.27;94713.19;4198313;28;20052;-70
2023/11/14 00:49:29;;;;;;;31.60;18.48;;;;;;;7.96;69.52;94732.00;4208852;28;20143;-68
2023/11/14 00:51:32;;;;;;;28.73;16.60;;;;;;;8.00;69.15;94735.13;4200121;28;20151;-69
2023/11/14 00:53:33;;;;;;;23.30;15.13;;;;;;;8.06;69.23;94731.16;4205423;28;20196;-68
2023/11/14 00:55:35;;;;;;;21.45;14.57;;;;;;;8.06;68.77;94729.34;4198248;28;20058;-69
2023/11/14 00:57:38;;;;;;;25.17;15.73;;;;;;;8.08;68.77;94735.25;4204203;28;20044;-68
2023/11/14 00:59:40;;;;;;;26.70;16.20;;;;;;;8.09;68.74;94720.44;4202190;28;20052;-70
2023/11/14 01:01:41;;;;;;;27.85;16.77;;;;;;;8.12;68.42;94720.97;4209099;28;20047;-68
2023/11/14 01:03:43;;;;;;;26.88;16.02;;;;;;;8.15;67.85;94722.44;4204573;28;20040;-68
2023/11/14 01:05:46;;;;;;;25.30;16.20;;;;;;;8.10;68.38;94722.88;4206883;28;20072;-69
2023/11/14 01:07:50;;;;;;;25.23;16.30;;;;;;;8.08;68.22;94718.78;4207154;28;20057;-68
2023/11/14 01:09:51;;;;;;;25.40;16.60;;;;;;;8.08;68.66;94724.81;4201157;28;20048;-70
2023/11/14 01:11:53;;;;;;;30.15;16.73;;;;;;;8.10;68.50;94719.47;4199887;28;20047;-69
2023/11/14 01:13:55;;;;;;;28.85;16.20;;;;;;;8.09;68.32;94725.66;4210779;28;20044;-66
2023/11/14 01:15:57;;;;;;;28.90;17.08;;;;;;;8.08;68.77;94727.44;4202980;28;20418;-67
2023/11/14 01:17:59;;;;;;;23.83;15.50;;;;;;;8.07;68.58;94724.97;4206797;28;20480;-67
2023/11/14 01:20:02;;;;;;;24.58;15.32;;;;;;;8.04;69.11;94718.22;4215339;28;20658;-67
2023/11/14 01:22:04;;;;;;;23.83;15.88;;;;;;;8.03;69.13;94721.00;4209705;28;20044;-70
2023/11/14 01:24:06;;;;;;;22.98;15.80;;;;;;;8.05;69.31;94719.91;4209888;28;20048;-69
2023/11/14 01:26:08;;;;;;;26.08;16.15;;;;;;;8.04;68.78;94705.19;4209411;28;20056;-68
2023/11/14 01:28:10;;;;;;;25.85;16.35;;;;;;;8.05;69.40;94696.41;4210352;28;20418;-71
2023/11/14 01:30:12;;;;;;;23.95;15.90;;;;;;;8.02;68.80;94693.25;4204063;28;20040;-69
2023/11/14 01:32:14;;;;;;;23.00;15.52;;;;;;;7.96;68.73;94697.28;4205357;28;20264;-68
2023/11/14 01:34:16;;;;;;;26.00;15.38;;;;;;;7.92;69.11;94688.91;4201217;28;20449;-68
2023/11/14 01:36:19;;;;;;;23.65;16.15;;;;;;;7.92;69.46;94680.28;4203753;28;20085;-68
2023/11/14 01:38:21;;;;;;;22.50;15.48;;;;;;;7.90;69.29;94680.41;4189294;28;20092;-69
2023/11/14 01:40:24;;;;;;;22.65;15.50;;;;;;;7.95;69.33;94685.19;4207352;28;20458;-69
2023/11/14 01:42:26;;;;;;;24.05;15.27;;;;;;;7.98;68.78;94693.56;4197277;28;20057;-68
2023/11/14 01:44:30;;;;;;;20.92;14.45;;;;;;;7.90;68.64;94690.03;4202209;28;20051;-70
2023/11/14 01:46:32;;;;;;;21.77;14.48;;;;;;;7.79;69.75;94680.59;4211611;28;20048;-69
2023/11/14 01:48:34;;;;;;;19.98;13.60;;;;;;;7.80;69.33;94688.25;4208418;28;20075;-69
2023/11/14 01:50:38;;;;;;;20.98;13.77;;;;;;;7.88;70.15;94691.94;4202961;28;20412;-69
2023/11/14 01:52:40;;;;;;;23.85;15.07;;;;;;;7.89;69.22;94690.97;4203085;28;20054;-67
2023/11/14 01:54:42;;;;;;;22.88;14.77;;;;;;;7.93;69.51;94687.13;4209899;28;20044;-71
2023/11/14 01:56:44;;;;;;;18.88;13.38;;;;;;;7.94;68.88;94681.75;4194136;28;20360;-68
2023/11/14 01:58:49;;;;;;;20.75;14.27;;;;;;;7.96;68.56;94679.03;4193273;28;20052;-70
2023/11/14 02:00:51;;;;;;;21.73;14.77;;;;;;;7.93;68.89;94676.69;4209414;28;20456;-69
2023/11/14 02:02:53;;;;;;;24.48;14.00;;;;;;;7.90;69.03;94680.41;4228407;28;20440;-69
2023/11/14 02:04:56;;;;;;;26.92;13.88;;;;;;;7.87;68.87;94687.69;4214523;28;20048;-70
2023/11/14 02:06:58;;;;;;;23.58;14.35;;;;;;;7.88;68.91;94689.34;4206230;28;20056;-71
2023/11/14 02:09:00;;;;;;;19.90;13.82;;;;;;;7.87;68.91;94687.69;4198795;28;20075;-69
2023/11/14 02:11:02;;;;;;;24.17;14.65;;;;;;;7.82;69.09;94685.50;4211416;28;20529;-71
2023/11/14 02:13:05;;;;;;;22.13;13.65;;;;;;;7.76;68.92;94676.47;4212982;28;20110;-69
2023/11/14 02:15:07;;;;;;;25.77;14.38;;;;;;;7.72;68.94;94675.13;4212713;28;20044;-70
2023/11/14 02:17:16;;;;;;;20.83;12.60;;;;;;;7.78;69.56;94674.53;4212653;28;20048;-68
2023/11/14 02:19:18;;;;;;;20.05;13.43;;;;;;;7.82;69.30;94671.66;4201928;28;20056;-67
2023/11/14 02:21:21;;;;;;;25.83;13.25;;;;;;;7.80;69.23;94672.59;4211459;28;20098;-70
2023/11/14 02:23:26;;;;;;;23.63;13.98;;;;;;;7.71;68.77;94657.00;4209938;28;20087;-69
2023/11/14 02:25:28;;;;;;;22.60;13.88;;;;;;;7.75;69.15;94656.56;4206628;28;20126;-69
2023/11/14 02:27:31;;;;;;;21.30;14.02;;;;;;;7.67;69.89;94666.88;4201303;28;20060;-69
2023/11/14 02:29:33;;;;;;;24.05;13.65;;;;;;;7.65;69.58;94663.59;4205501;28;20048;-70
2023/11/14 02:31:35;;;;;;;20.90;13.98;;;;;;;7.67;69.55;94672.09;4202061;28;20532;-71
2023/11/14 02:33:37;;;;;;;20.60;15.00;;;;;;;7.68;70.03;94675.53;4203961;28;20044;-71
2023/11/14 02:35:40;;;;;;;26.17;14.82;;;;;;;7.74;69.53;94672.34;4200746;28;20087;-70
2023/11/14 02:37:42;;;;;;;23.95;16.10;;;;;;;7.71;69.49;94683.91;4209865;28;20048;-71
2023/11/14 02:39:44;;;;;;;21.20;13.65;;;;;;;7.67;69.82;94679.09;4210132;28;20044;-70
2023/11/14 02:41:46;;;;;;;19.85;14.52;;;;;;;7.56;70.10;94683.53;4204248;28;20127;-69
2023/11/14 02:43:49;;;;;;;26.88;15.02;;;;;;;7.39;69.91;94682.44;4203889;28;20052;-70
2023/11/14 02:45:51;;;;;;;24.30;15.03;;;;;;;7.11;70.83;94696.34;4206183;28;20055;-69
2023/11/14 02:47:54;;;;;;;24.80;14.55;;;;;;;7.09;71.51;94701.69;4196240;28;20122;-68
2023/11/14 02:50:09;;;;;;;22.80;14.20;;;;;;;7.17;72.09;94703.63;4211196;28;20161;-70
2023/11/14 02:52:11;;;;;;;22.15;14.05;;;;;;;7.28;71.40;94700.84;4220989;28;20483;-67
2023/11/14 02:54:14;;;;;;;22.67;13.65;;;;;;;7.35;71.37;94701.94;4211085;28;20044;-69
2023/11/14 02:56:16;;;;;;;22.05;14.63;;;;;;;7.41;70.77;94707.56;4211816;28;20051;-69
2023/11/14 02:58:19;;;;;;;22.65;14.45;;;;;;;7.45;70.38;94703.72;4212990;28;20052;-69
2023/11/14 03:00:21;;;;;;;19.23;14.43;;;;;;;7.49;70.65;94697.28;4211548;28;20059;-69
2023/11/14 03:02:24;;;;;;;26.33;15.45;;;;;;;7.53;70.75;94698.63;4201867;28;20053;-71
2023/11/14 03:04:26;;;;;;;22.75;14.38;;;;;;;7.53;70.75;94711.69;4211343;28;20048;-70
2023/11/14 03:06:28;;;;;;;19.75;13.32;;;;;;;7.57;70.36;94711.25;4212554;28;20075;-69
2023/11/14 03:08:30;;;;;;;21.10;13.45;;;;;;;7.51;70.29;94711.00;4222054;28;20048;-70
2023/11/14 03:10:32;;;;;;;22.85;14.23;;;;;;;7.45;70.38;94706.34;4197421;28;20049;-68
2023/11/14 03:12:33;;;;;;;24.63;14.98;;;;;;;7.41;70.64;94700.56;4216135;28;20208;-70
2023/11/14 03:14:36;;;;;;;24.38;15.02;;;;;;;7.43;71.12;94693.44;4202053;28;20053;-69
2023/11/14 03:16:38;;;;;;;20.40;13.90;;;;;;;7.44;70.71;94699.47;4213520;28;20487;-68
2023/11/14 03:18:40;;;;;;;22.60;15.55;;;;;;;7.48;70.82;94711.25;4209573;28;20135;-69
2023/11/14 03:20:43;;;;;;;22.38;15.32;;;;;;;7.45;70.76;94709.75;4192262;28;20091;-68
2023/11/14 03:22:44;;;;;;;18.80;14.23;;;;;;;7.46;70.39;94713.19;4210117;28;20054;-69
2023/11/14 03:24:46;;;;;;;22.73;14.50;;;;;;;7.50;70.12;94719.75;4202019;28;20036;-69
2023/11/14 03:26:48;;;;;;;28.92;14.50;;;;;;;7.52;69.71;94718.66;4204299;28;20052;-70
2023/11/14 03:28:50;;;;;;;24.25;15.85;;;;;;;7.48;70.33;94722.50;4209407;28;20094;-69
2023/11/14 03:30:52;;;;;;;22.70;16.30;;;;;;;7.50;70.49;94724.97;4210819;28;20067;-70
2023/11/14 03:32:56;;;;;;;23.92;15.57;;;;;;;7.50;69.80;94719.75;4203965;28;20462;-69
2023/11/14 03:34:59;;;;;;;22.92;16.13;;;;;;;7.44;70.16;94725.53;4207054;28;20059;-71
2023/11/14 03:37:03;;;;;;;21.38;15.40;;;;;;;7.49;70.63;94723.34;4199997;28;20052;-70
2023/11/14 03:39:05;;;;;;;22.60;14.50;;;;;;;7.47;70.03;94720.88;4212045;28;20044;-70
2023/11/14 03:41:07;;;;;;;22.20;15.07;;;;;;;7.43;69.74;94716.88;4196641;28;20062;-68
2023/11/14 03:43:09;;;;;;;23.48;14.73;;;;;;;7.36;70.51;94719.22;4197559;28;20548;-69
2023/11/14 03:45:11;;;;;;;27.40;15.20;;;;;;;7.30;70.28;94730.22;4197084;28;20075;-67
2023/11/14 03:47:13;;;;;;;25.02;16.33;;;;;;;7.28;70.62;94734.72;4197857;28;20063;-70
2023/11/14 03:49:15;;;;;;;24.45;16.33;;;;;;;7.31;70.85;94723.19;4201887;28;20049;-69
2023/11/14 03:51:16;;;;;;;27.20;16.80;;;;;;;7.35;70.37;94720.19;4200394;28;20148;-69
2023/11/14 03:53:19;;;;;;;23.10;15.45;;;;;;;7.34;70.10;94709.91;4202795;28;20490;-69
2023/11/14 03:55:22;;;;;;;22.73;15.73;;;;;;;7.35;70.48;94708.94;4204156;28;20083;-69
2023/11/14 03:57:24;;;;;;;23.30;14.90;;;;;;;7.35;70.30;94701.94;4209282;28;20142;-68
2023/11/14 03:59:25;;;;;;;24.70;15.90;;;;;;;7.36;70.29;94702.78;4199165;28;20110;-71
2023/11/14 04:01:28;;;;;;;19.73;14.90;;;;;;;7.36;70.34;94703.59;4210410;28;20048;-69
2023/11/14 04:03:30;;;;;;;24.52;15.30;;;;;;;7.40;70.93;94711.97;4210551;28;20055;-70
2023/11/14 04:05:32;;;;;;;19.58;13.70;;;;;;;7.36;69.62;94706.19;4212133;28;20091;-71
2023/11/14 04:07:34;;;;;;;22.30;14.20;;;;;;;7.35;69.84;94714.97;4209938;28;20127;-71
2023/11/14 04:09:39;;;;;;;20.52;13.38;;;;;;;7.36;69.64;94711.41;4210131;28;20101;-70
2023/11/14 04:11:47;;;;;;;19.73;12.75;;;;;;;7.32;69.18;94722.25;4200395;28;20059;-70
2023/11/14 04:13:50;;;;;;;20.30;12.75;;;;;;;7.33;69.54;94719.50;4227121;28;20063;-70
2023/11/14 04:15:53;;;;;;;20.67;12.82;;;;;;;7.27;69.00;94722.69;4210868;28;20460;-71
2023/11/14 04:17:56;;;;;;;18.80;12.60;;;;;;;7.27;69.23;94727.03;4203722;28;20078;-67
2023/11/14 04:19:58;;;;;;;18.85;12.82;;;;;;;7.25;69.71;94723.75;4206996;28;20048;-68
2023/11/14 04:22:00;;;;;;;18.70;13.23;;;;;;;7.28;69.66;94711.28;4208226;28;20064;-70
2023/11/14 04:24:03;;;;;;;21.33;14.38;;;;;;;7.35;69.93;94709.75;4208259;28;20049;-69
2023/11/14 04:26:05;;;;;;;21.20;13.60;;;;;;;7.38;69.40;94696.47;4208477;28;20121;-69
2023/11/14 04:28:08;;;;;;;18.67;12.40;;;;;;;7.38;69.12;94700.84;4212396;28;20093;-69
2023/11/14 04:30:10;;;;;;;18.13;11.25;;;;;;;7.34;69.29;94684.66;4212337;28;20426;-69
2023/11/14 04:32:13;;;;;;;19.80;12.35;;;;;;;7.37;70.00;94704.41;4199382;28;20056;-70
2023/11/14 04:34:15;;;;;;;23.85;14.73;;;;;;;7.11;69.89;94698.94;4198917;28;20047;-67
2023/11/14 04:36:19;;;;;;;27.45;14.63;;;;;;;7.03;70.76;94712.66;4203271;28;20048;-69
2023/11/14 04:38:21;;;;;;;23.15;14.23;;;;;;;7.02;71.37;94700.59;4207100;28;20069;-71
2023/11/14 04:40:23;;;;;;;19.83;12.93;;;;;;;7.08;71.52;94709.66;4196471;28;20052;-67
2023/11/14 04:42:28;;;;;;;21.67;13.68;;;;;;;7.16;70.89;94692.38;4200681;28;20122;-69
2023/11/14 04:44:30;;;;;;;27.20;13.32;;;;;;;7.21;70.78;94691.97;4212197;28;20418;-71
2023/11/14 04:46:31;;;;;;;21.05;12.48;;;;;;;7.25;70.34;94695.09;4210204;28;20048;-69
2023/11/14 04:48:33;;;;;;;21.10;12.60;;;;;;;7.31;70.47;94699.75;4205169;28;20056;-68
2023/11/14 04:50:35;;;;;;;21.50;13.07;;;;;;;7.36;69.82;94702.78;4203756;28;20130;-66
2023/11/14 04:52:38;;;;;;;19.92;12.43;;;;;;;7.38;70.13;94716.50;4193004;28;20479;-69
2023/11/14 04:54:40;;;;;;;20.55;11.88;;;;;;;7.36;69.42;94714.03;4206324;28;20498;-68
2023/11/14 04:56:41;;;;;;;22.95;12.32;;;;;;;7.31;69.76;94726.66;4199899;28;20462;-68
2023/11/14 04:58:43;;;;;;;21.98;12.77;;;;;;;7.11;69.84;94719.78;4199447;28;20052;-69
2023/11/14 05:00:45;;;;;;;23.40;13.48;;;;;;;6.95;70.64;94721.16;4210937;28;20052;-70
2023/11/14 05:02:47;;;;;;;20.73;14.35;;;;;;;6.83;71.25;94724.84;4200274;28;20060;-69
2023/11/14 05:04:49;;;;;;;18.60;11.73;;;;;;;6.62;71.56;94719.72;4210614;28;20048;-70
2023/11/14 05:06:51;;;;;;;20.33;11.90;;;;;;;6.65;72.31;94747.31;4209395;28;20172;-70
2023/11/14 05:08:53;;;;;;;20.92;13.32;;;;;;;6.61;72.32;94745.91;4211239;28;20056;-71
2023/11/14 05:10:56;;;;;;;22.13;13.38;;;;;;;6.58;72.38;94747.00;4200573;28;20075;-69
2023/11/14 05:12:59;;;;;;;17.90;12.35;;;;;;;6.38;72.35;94747.91;4198724;28;20198;-72
2023/11/14 05:15:01;;;;;;;19.80;12.45;;;;;;;6.42;73.33;94738.88;4198827;28;20079;-70
2023/11/14 05:17:03;;;;;;;20.30;12.10;;;;;;;6.51;73.08;94745.88;4204724;28;20054;-69
2023/11/14 05:19:06;;;;;;;23.17;11.68;;;;;;;6.60;72.57;94739.06;4226158;28;20083;-70
2023/11/14 05:21:08;;;;;;;26.38;11.48;;;;;;;6.70;72.30;94747.72;4209795;28;20036;-69
2023/11/14 05:23:09;;;;;;;23.88;12.05;;;;;;;6.82;72.10;94741.44;4206945;28;20060;-69
2023/11/14 05:25:11;;;;;;;17.42;11.20;;;;;;;6.91;71.44;94737.19;4203843;28;20078;-71
2023/11/14 05:27:13;;;;;;;20.30;12.25;;;;;;;6.91;71.63;94742.41;4198529;28;20127;-71
2023/11/14 05:29:16;;;;;;;17.27;10.88;;;;;;;6.94;71.30;94739.53;4211533;28;20048;-71
2023/11/14 05:31:18;;;;;;;25.98;13.95;;;;;;;6.97;71.57;94747.91;4207131;28;20475;-71
2023/11/14 05:33:20;;;;;;;20.38;12.75;;;;;;;6.97;71.85;94753.09;4205200;28;20048;-70
2023/11/14 05:35:22;;;;;;;22.27;14.57;;;;;;;6.84;71.91;94755.16;4214250;28;20412;-71
2023/11/14 05:37:24;;;;;;;27.27;15.88;;;;;;;6.87;72.49;94767.88;4213014;28;20049;-73
2023/11/14 05:39:26;;;;;;;23.08;14.27;;;;;;;6.81;71.94;94760.59;4214414;28;20097;-71
2023/11/14 05:41:28;;;;;;;21.08;14.50;;;;;;;6.88;72.20;94743.50;4211945;28;20506;-71
2023/11/14 05:43:30;;;;;;;26.73;14.80;;;;;;;6.95;72.19;94736.78;4179219;28;20061;-70
2023/11/14 05:45:32;;;;;;;18.45;13.43;;;;;;;7.05;71.86;94736.78;4213215;28;20075;-71
2023/11/14 05:47:34;;;;;;;23.27;13.77;;;;;;;7.17;71.88;94742.69;4215260;28;20110;-71
2023/11/14 05:49:36;;;;;;;26.30;14.57;;;;;;;7.30;71.21;94734.59;4214843;28;20093;-71
2023/11/14 05:51:38;;;;;;;25.40;14.23;;;;;;;7.39;70.97;94742.41;4210244;28;20045;-69
2023/11/14 05:53:42;;;;;;;25.65;14.13;;;;;;;7.50;70.17;94745.81;4210961;28;20048;-70
2023/11/14 05:55:44;;;;;;;25.48;14.98;;;;;;;7.57;70.51;94734.72;4212841;28;20048;-70
2023/11/14 05:57:46;;;;;;;24.48;16.17;;;;;;;7.65;70.16;94741.81;4214751;28;20131;-72
2023/11/14 05:59:50;;;;;;;37.05;17.45;;;;;;;7.69;70.17;94750.19;4203886;28;20047;-70
2023/11/14 06:01:53;;;;;;;34.60;18.42;;;;;;;7.76;69.63;94741.66;4205098;28;20048;-70
2023/11/14 06:03:56;;;;;;;28.48;17.17;;;;;;;7.82;69.86;94747.28;4202610;28;20524;-71
2023/11/14 06:05:58;;;;;;;32.53;16.70;;;;;;;7.92;69.58;94746.28;4199156;28;20128;-72
2023/11/14 06:08:01;;;;;;;27.85;17.67;;;;;;;8.03;69.48;94758.34;4211304;28;20048;-71
2023/11/14 06:10:04;;;;;;;30.65;18.70;;;;;;;8.07;69.40;94751.88;4203038;28;20055;-71
2023/11/14 06:12:06;;;;;;;30.25;17.02;;;;;;;8.25;69.61;94741.50;4205375;28;20048;-70
2023/11/14 06:14:08;;;;;;;30.13;18.17;;;;;;;8.33;69.03;94733.78;4214109;28;20044;-72
2023/11/14 06:16:10;;;;;;;28.60;18.33;;;;;;;8.35;67.96;94729.25;4202590;28;20121;-70
2023/11/14 06:18:13;;;;;;;33.38;19.33;;;;;;;8.36;67.91;94730.06;4202815;28;20098;-69
2023/11/14 06:20:15;;;;;;;35.33;23.17;;;;;;;8.39;67.78;94725.38;4207665;28;20044;-71
2023/11/14 06:22:17;;;;;;;30.63;23.10;;;;;;;8.39;67.34;94728.00;4208912;28;20292;-70
2023/11/14 06:24:19;;;;;;;35.38;23.60;;;;;;;8.38;66.85;94718.50;4212881;28;20467;-70
2023/11/14 06:26:21;;;;;;;37.70;24.25;;;;;;;8.46;67.11;94728.25;4213713;28;20127;-72
2023/11/14 06:28:25;;;;;;;41.35;26.70;;;;;;;8.54;67.63;94724.91;4207230;28;20386;-71
2023/11/14 06:30:27;;;;;;;45.17;30.65;;;;;;;8.51;67.32;94733.84;4209595;28;20051;-73
2023/11/14 06:32:28;;;;;;;45.05;34.45;;;;;;;8.57;67.54;94732.47;4211586;28;20052;-71
2023/11/14 06:34:32;;;;;;;40.63;34.35;;;;;;;8.62;67.08;94732.84;4212319;28;20485;-71
2023/11/14 06:36:33;;;;;;;44.07;35.27;;;;;;;8.71;66.63;94736.38;4214261;28;20052;-71
2023/11/14 06:38:36;;;;;;;42.95;33.83;;;;;;;8.67;66.05;94729.78;4216033;28;20052;-72
2023/11/14 06:40:39;;;;;;;46.38;32.63;;;;;;;8.78;66.72;94733.03;4209789;28;20583;-72
2023/11/14 06:42:43;;;;;;;39.53;31.15;;;;;;;8.86;66.16;94741.91;4199707;28;20114;-71
2023/11/14 06:44:45;;;;;;;47.45;31.88;;;;;;;8.96;66.30;94740.88;4207081;28;20052;-74
2023/11/14 06:46:47;;;;;;;42.85;29.30;;;;;;;9.02;66.02;94724.59;4204772;28;20052;-72
2023/11/14 06:48:50;;;;;;;38.83;27.95;;;;;;;9.09;65.31;94722.22;4212255;28;20074;-71
2023/11/14 06:50:52;;;;;;;37.47;26.98;;;;;;;9.22;65.72;94709.59;4200156;28;20466;-70
2023/11/14 06:52:54;;;;;;;36.85;28.25;;;;;;;9.35;65.27;94711.81;4205397;28;20135;-71
2023/11/14 06:54:56;;;;;;;41.45;28.60;;;;;;;9.38;65.22;94702.88;4208554;28;20132;-71
2023/11/14 06:56:59;;;;;;;36.40;27.52;;;;;;;9.32;64.87;94706.91;4203889;28;20060;-71
2023/11/14 06:59:01;;;;;;;39.47;26.30;;;;;;;8.65;67.17;94705.59;4202215;28;20110;-71
2023/11/14 07:01:03;;;;;;;41.80;25.88;;;;;;;8.73;66.97;94700.47;4209745;28;20044;-71
2023/11/14 07:03:05;;;;;;;35.95;26.42;;;;;;;8.92;67.03;94710.78;4203391;28;20078;-72
2023/11/14 07:05:09;;;;;;;36.38;26.10;;;;;;;8.94;66.22;94710.66;4208859;28;20048;-73
2023/11/14 07:07:12;;;;;;;43.75;27.65;;;;;;;8.98;66.80;94714.59;4211293;28;20044;-71
2023/11/14 07:09:15;;;;;;;41.88;27.30;;;;;;;8.98;66.13;94732.91;4212127;28;20051;-72
2023/11/14 07:11:17;;;;;;;39.75;26.83;;;;;;;9.14;66.11;94730.44;4205309;28;20097;-71
2023/11/14 07:13:23;;;;;;;39.72;28.35;;;;;;;9.26;65.93;94732.84;4206333;28;20129;-71
2023/11/14 07:15:27;;;;;;;44.22;30.05;;;;;;;9.39;65.80;94733.28;4191439;28;20396;-71
2023/11/14 07:17:29;;;;;;;;;;;;;;;9.43;65.33;94734.63;4199158;28;20052;-70
2023/11/14 07:19:31;;;;;;;42.33;30.48;;;;;;;9.51;65.29;94731.25;4202757;28;19989;-71
2023/11/14 07:21:36;;;;;;;42.83;32.42;;;;;;;9.67;64.96;94725.31;4214209;28;20056;-71
2023/11/14 07:23:38;;;;;;;34.17;27.25;;;;;;;9.78;64.14;94720.63;4211354;28;20105;-73
2023/11/14 07:25:43;;;;;;;42.33;28.00;;;;;;;9.95;63.80;94721.56;4203026;28;20079;-70
2023/11/14 07:27:47;;;;;;;32.47;21.38;;;;;;;9.94;62.62;94725.16;4212893;28;20048;-71
2023/11/14 07:29:51;;;;;;;30.45;17.33;;;;;;;9.74;62.83;94714.06;4204767;28;20095;-73
2023/11/14 07:31:53;;;;;;;20.92;15.68;;;;;;;9.84;62.90;94719.22;4216401;28;20490;-71
2023/11/14 07:33:55;;;;;;;26.88;17.27;;;;;;;9.92;62.83;94718.47;4209377;28;20162;-69
2023/11/14 07:35:58;;;;;;;28.73;17.70;;;;;;;9.97;63.06;94724.03;4210267;28;20167;-71
2023/11/14 07:38:00;;;;;;;19.13;14.10;;;;;;;9.69;62.03;94724.19;4212443;28;20051;-71
2023/11/14 07:40:05;;;;;;;23.25;15.45;;;;;;;9.72;62.69;94716.03;4210181;28;20109;-73
2023/11/14 07:42:08;;;;;;;28.10;16.52;;;;;;;9.81;62.87;94715.13;4202410;28;20047;-71
2023/11/14 07:44:11;;;;;;;25.85;17.05;;;;;;;9.95;62.51;94716.31;4223074;28;20093;-72
2023/11/14 07:46:13;;;;;;;29.38;16.63;;;;;;;10.13;62.83;94710.19;4206668;28;20525;-71
2023/11/14 07:48:16;;;;;;;31.02;17.15;;;;;;;10.25;62.04;94709.78;4197397;28;20102;-72
2023/11/14 07:50:18;;;;;;;21.07;16.37;;;;;;;10.36;61.85;94706.09;4203045;28;20422;-72
2023/11/14 07:52:20;;;;;;;29.38;17.98;;;;;;;10.32;61.64;94707.38;4206873;28;20651;-72
2023/11/14 07:54:22;;;;;;;22.60;14.15;;;;;;;10.35;61.02;94706.28;4208849;28;20040;-71
2023/11/14 07:56:24;;;;;;;26.02;12.93;;;;;;;10.26;61.78;94702.78;4210084;28;20478;-72
2023/11/14 07:58:29;;;;;;;20.55;12.95;;;;;;;10.51;61.38;94716.78;4212917;28;20472;-72
2023/11/14 08:00:31;;;;;;;24.77;15.35;;;;;;;10.49;60.17;94721.38;4211286;28;20143;-71
2023/11/14 08:02:33;;;;;;;19.25;15.15;;;;;;;10.16;61.34;94728.22;4208422;28;20051;-72
2023/11/14 08:04:36;;;;;;;23.98;12.10;;;;;;;9.70;62.54;94725.00;4211010;28;20108;-72
2023/11/14 08:06:38;;;;;;;16.38;11.40;;;;;;;9.73;62.96;94717.66;4208273;28;20052;-71
2023/11/14 08:08:42;;;;;;;22.10;11.15;;;;;;;9.80;62.41;94716.06;4206144;28;20052;-72
2023/11/14 08:10:45;;;;;;;18.42;12.93;;;;;;;9.89;61.77;94705.66;4197853;28;20052;-71
2023/11/14 08:12:47;;;;;;;24.25;12.90;;;;;;;9.82;61.69;94716.75;4204880;28;20135;-70
2023/11/14 08:14:49;;;;;;;23.02;12.52;;;;;;;10.02;62.05;94698.22;4213519;28;20106;-70
2023/11/14 08:16:51;;;;;;;17.83;11.20;;;;;;;10.12;61.29;94701.53;4212063;28;20044;-71
2023/11/14 08:18:54;;;;;;;21.88;12.52;;;;;;;10.19;61.10;94697.31;4204317;28;20518;-72
2023/11/14 08:20:56;;;;;;;21.77;12.70;;;;;;;10.37;61.26;94688.59;4199278;28;20052;-71
2023/11/14 08:22:58;;;;;;;20.10;12.32;;;;;;;10.61;60.32;94691.28;4210830;28;20085;-71
2023/11/14 08:25:01;;;;;;;21.42;13.48;;;;;;;10.81;59.82;94681.34;4203508;28;20114;-69
2023/11/14 08:27:04;;;;;;;21.05;12.80;;;;;;;10.67;59.19;94676.75;4208249;28;20146;-72
2023/11/14 08:29:06;;;;;;;21.90;14.27;;;;;;;10.62;59.73;94682.44;4207949;28;20412;-73
2023/11/14 08:31:13;;;;;;;26.95;13.82;;;;;;;10.88;59.90;94671.03;4202311;28;20105;-72
2023/11/14 08:33:16;;;;;;;21.70;13.85;;;;;;;10.85;59.14;94676.63;4206836;28;20046;-72
2023/11/14 08:35:18;;;;;;;21.42;11.35;;;;;;;10.92;59.00;94680.22;4202504;28;20052;-71
2023/11/14 08:37:20;;;;;;;20.33;11.57;;;;;;;11.14;58.95;94677.94;4208959;28;20434;-73
2023/11/14 08:39:26;;;;;;;18.73;12.10;;;;;;;11.25;58.41;94680.28;4225225;28;20043;-73
2023/11/14 08:41:31;;;;;;;22.08;11.50;;;;;;;11.27;58.32;94670.41;4194621;28;20058;-72
2023/11/14 08:43:34;;;;;;;18.58;11.02;;;;;;;11.55;57.94;94680.56;4210386;28;20044;-74
2023/11/14 08:45:37;;;;;;;17.10;11.95;;;;;;;11.26;57.10;94689.75;4211804;28;20063;-72
2023/11/14 08:47:39;;;;;;;22.85;13.60;;;;;;;10.98;58.76;94684.81;4201376;28;20048;-71
2023/11/14 08:49:42;;;;;;;26.67;13.50;;;;;;;10.98;59.05;94684.81;4209913;28;20044;-73
2023/11/14 08:51:44;;;;;;;24.42;13.38;;;;;;;10.76;59.37;94688.06;4195909;28;21088;-71
2023/11/14 08:53:46;;;;;;;24.95;13.90;;;;;;;10.88;59.46;94688.56;4201638;28;20530;-71
2023/11/14 08:55:48;;;;;;;22.63;13.45;;;;;;;10.55;60.13;94699.78;4211131;28;20061;-71
2023/11/14 08:57:52;;;;;;;25.05;13.32;;;;;;;10.82;59.27;94692.66;4211549;28;20395;-72
2023/11/14 08:59:57;;;;;;;23.48;12.65;;;;;;;10.91;58.82;94691.69;4198250;28;20055;-75
2023/11/14 09:01:58;;;;;;;23.88;12.38;;;;;;;11.21;58.65;94699.94;4200131;28;20051;-73
2023/11/14 09:04:01;;;;;;;19.02;12.30;;;;;;;11.44;57.73;94695.69;4197089;28;20044;-73
2023/11/14 09:06:03;;;;;;;22.50;11.80;;;;;;;11.75;57.07;94695.00;4209844;28;20135;-72
2023/11/14 09:08:09;;;;;;;18.25;10.40;;;;;;;11.97;56.77;94690.06;4209883;28;20059;-72
2023/11/14 09:10:11;;;;;;;13.82;8.73;;;;;;;12.13;55.95;94691.81;4205771;28;20040;-73
2023/11/14 09:12:19;;;;;;;18.00;10.82;;;;;;;12.24;55.55;94688.84;4205089;28;20086;-73
2023/11/14 09:14:24;;;;;;;23.70;13.93;;;;;;;12.15;55.63;94690.66;4206192;28;20567;-72
2023/11/14 09:16:29;;;;;;;25.90;14.48;;;;;;;11.89;56.46;94690.88;4206311;28;20486;-72
2023/11/14 09:18:33;;;;;;;28.45;14.43;;;;;;;12.04;56.04;94676.09;4214547;28;20059;-73
2023/11/14 09:20:36;;;;;;;24.52;13.75;;;;;;;12.41;56.14;94672.03;4204269;28;20059;-72
2023/11/14 09:22:38;;;;;;;20.52;11.38;;;;;;;12.73;55.03;94674.66;4214044;28;20489;-73
2023/11/14 09:24:40;;;;;;;20.17;10.85;;;;;;;13.03;54.95;94679.06;4213757;28;20052;-72
2023/11/14 09:26:42;;;;;;;16.08;10.13;;;;;;;13.22;53.61;94676.97;4206565;28;20044;-74
2023/11/14 09:28:44;;;;;;;16.42;10.65;;;;;;;13.42;53.30;94677.34;4202442;28;20445;-70